Time;durP1;ratioP1;P1;durP2;ratioP2;P2;SDS_P1;SDS_P2;PMS_P1;PMS_P2;Temp;Humidity;BMP_temperature;BMP_pressure;BME280_temperature;BME280_humidity;BME280_pressure;Samples;Min_cycle;Max_cycle;Signal;HPM_P1;HPM_P2
2022/02/04 00:05:58;;;;;;;;;;;;;;;;;;2101520;28;19920;-76
2022/02/04 00:09:45;;;;;;;;;;;;;;;;;;2098259;28;20003;-76
2022/02/04 00:23:22;;;;;;;;;;;;;;;;;;2098915;28;19961;-75
2022/02/04 00:24:36;;;;;;;;;;;;;;;;;;2099529;28;19916;-75
2022/02/04 00:27:19;;;;;;;;;;;;;;;;;;2100382;28;19975;-76
2022/02/04 00:28:51;;;;;;;;;;;;;;;;;;2099995;28;19916;-75
2022/02/04 00:30:25;;;;;;;;;;;;;;;;;;2099798;28;20294;-75
2022/02/04 00:31:50;;;;;;;;;;;;;;;;;;2099987;28;19955;-75
2022/02/04 00:33:11;;;;;;;;;;;;;;;;;;2101045;28;20359;-74
2022/02/04 00:34:37;;;;;;;;;;;;;;;;;;2099449;28;20367;-74
2022/02/04 00:36:03;;;;;;;;;;;;;;;;;;2100454;28;19948;-74
2022/02/04 00:37:55;;;;;;;;;;;;;;;;;;2099873;28;19954;-75
2022/02/04 00:39:19;;;;;;;;;;;;;;;;;;2099898;28;19913;-74
2022/02/04 00:40:42;;;;;;;;;;;;;;;;;;2099666;28;19999;-75
2022/02/04 00:42:06;;;;;;;;;;;;;;;;;;2099603;28;20417;-74
2022/02/04 00:43:25;;;;;;;;;;;;;;;;;;2098925;28;19953;-74
2022/02/04 00:44:44;;;;;;;;;;;;;;;;;;2099155;28;19912;-75
2022/02/04 00:46:12;;;;;;;;;;;;;;;;;;2099635;28;19916;-75
2022/02/04 00:47:34;;;;;;;;;;;;;;;;;;2099569;28;19908;-75
2022/02/04 00:49:44;;;;;;;;;;;;;;;;;;2097148;28;19999;-75
2022/02/04 00:50:37;;;;;;;;;;;;;;;;;;2100021;28;19916;-75
2022/02/04 00:52:14;;;;;;;;;;;;;;;;;;2100954;28;19995;-75
2022/02/04 00:54:20;;;;;;;;;;;;;;;;;;2097848;28;19913;-75
2022/02/04 00:55:31;;;;;;;;;;;;;;;;;;2099523;28;19979;-75
2022/02/04 01:26:10;;;;;;;;;;;;;;;;;;2088983;28;19916;-75
2022/02/04 01:27:29;;;;;;;;;;;;;;;;;;2100473;28;19920;-74
2022/02/04 01:28:49;;;;;;;;;;;;;;;;;;2100032;28;19912;-74
2022/02/04 01:30:17;;;;;;;;;;;;;;;;;;2099769;28;19916;-75
2022/02/04 01:31:36;;;;;;;;;;;;;;;;;;2096667;28;20031;-74
2022/02/04 01:32:54;;;;;;;;;;;;;;;;;;2095638;28;19908;-76
2022/02/04 01:34:13;;;;;;;;;;;;;;;;;;2100303;28;19913;-75
2022/02/04 01:35:32;;;;;;;;;;;;;;;;;;2099396;28;19920;-74
2022/02/04 01:36:51;;;;;;;;;;;;;;;;;;2093402;28;20011;-75
2022/02/04 01:38:10;;;;;;;;;;;;;;;;;;2099926;28;19909;-76
2022/02/04 01:39:29;;;;;;;;;;;;;;;;;;2098262;28;20611;-76
2022/02/04 01:40:48;;;;;;;;;;;;;;;;;;2097064;28;19917;-75
2022/02/04 01:42:07;;;;;;;;;;;;;;;;;;2100918;28;19921;-75
2022/02/04 01:43:26;;;;;;;;;;;;;;;;;;2099117;28;19975;-77
2022/02/04 01:44:44;;;;;;;;;;;;;;;;;;2100024;28;19920;-76
2022/02/04 01:46:04;;;;;;;;;;;;;;;;;;2100998;28;19912;-77
2022/02/04 01:47:23;;;;;;;;;;;;;;;;;;2100902;28;19920;-77
2022/02/04 01:48:42;;;;;;;;;;;;;;;;;;2094676;28;19920;-77
2022/02/04 01:50:01;;;;;;;;;;;;;;;;;;2099040;28;19916;-77
2022/02/04 01:51:20;;;;;;;;;;;;;;;;;;2101122;28;20285;-78
2022/02/04 01:52:38;;;;;;;;;;;;;;;;;;2100703;28;19916;-78
2022/02/04 01:53:57;;;;;;;;;;;;;;;;;;2097439;28;19921;-77
2022/02/04 01:55:16;;;;;;;;;;;;;;;;;;2099297;28;19916;-77
2022/02/04 01:56:35;;;;;;;;;;;;;;;;;;2100081;28;19916;-77
2022/02/04 01:57:54;;;;;;;;;;;;;;;;;;2100065;28;19916;-78
2022/02/04 01:59:13;;;;;;;;;;;;;;;;;;2100035;28;19912;-77
2022/02/04 02:00:32;;;;;;;;;;;;;;;;;;2100840;28;19980;-76
2022/02/04 02:01:51;;;;;;;;;;;;;;;;;;2099841;28;19916;-77
2022/02/04 02:03:10;;;;;;;;;;;;;;;;;;2099671;28;20362;-77
2022/02/04 02:04:28;;;;;;;;;;;;;;;;;;2101475;28;19908;-77
2022/02/04 02:05:48;;;;;;;;;;;;;;;;;;2097848;28;19928;-77
2022/02/04 02:07:14;;;;;;;;;;;;;;;;;;2098901;28;19916;-77
2022/02/04 02:08:33;;;;;;;;;;;;;;;;;;2101300;28;20508;-78
2022/02/04 02:10:03;;;;;;;;;;;;;;;;;;2097736;28;19916;-78
2022/02/04 02:11:22;;;;;;;;;;;;;;;;;;2099021;28;20366;-77
2022/02/04 02:14:07;;;;;;;;;;;;;;;;;;2099160;28;20398;-77
2022/02/04 02:15:40;;;;;;;;;;;;;;;;;;2097676;28;20364;-77
2022/02/04 02:33:40;;;;;;;;;;;;;;;;;;2100436;28;19912;-78
2022/02/04 02:35:46;;;;;;;;;;;;;;;;;;2102104;28;19908;-78
2022/02/04 02:49:25;;;;;;;;;;;;;;;;;;2099460;28;19993;-77
2022/02/04 02:56:53;;;;;;;;;;;;;;;;;;2101773;28;19920;-77
2022/02/04 02:58:10;;;;;;;;;;;;;;;;;;2100133;28;19999;-77
2022/02/04 02:59:38;;;;;;;;;;;;;;;;;;2100905;28;20363;-78
2022/02/04 03:01:03;;;;;;;;;;;;;;;;;;2097657;28;19920;-77
2022/02/04 03:02:22;;;;;;;;;;;;;;;;;;2098352;28;19963;-77
2022/02/04 03:03:43;;;;;;;;;;;;;;;;;;2102211;28;19912;-77
2022/02/04 03:05:02;;;;;;;;;;;;;;;;;;2100198;28;19912;-77
2022/02/04 03:06:21;;;;;;;;;;;;;;;;;;2100967;28;19916;-77
2022/02/04 03:07:40;;;;;;;;;;;;;;;;;;2101822;28;19916;-77
2022/02/04 03:08:59;;;;;;;;;;;;;;;;;;2103248;28;19909;-77
2022/02/04 03:10:18;;;;;;;;;;;;;;;;;;2101136;28;19921;-77
2022/02/04 03:11:36;;;;;;;;;;;;;;;;;;2098928;28;20282;-77
2022/02/04 03:12:55;;;;;;;;;;;;;;;;;;2101190;28;19909;-77
2022/02/04 03:14:14;;;;;;;;;;;;;;;;;;2100960;28;20401;-77
2022/02/04 03:15:33;;;;;;;;;;;;;;;;;;2100599;28;19908;-77
2022/02/04 03:16:52;;;;;;;;;;;;;;;;;;2102420;28;19916;-77
2022/02/04 03:18:22;;;;;;;;;;;;;;;;;;2100940;28;19912;-77
2022/02/04 03:19:45;;;;;;;;;;;;;;;;;;2101285;28;19912;-77
2022/02/04 03:21:11;;;;;;;;;;;;;;;;;;2100592;28;20319;-77
2022/02/04 03:22:29;;;;;;;;;;;;;;;;;;2101866;28;20394;-76
2022/02/04 03:23:54;;;;;;;;;;;;;;;;;;2100910;28;19920;-76
2022/02/04 03:25:15;;;;;;;;;;;;;;;;;;2101493;28;20026;-77
2022/02/04 03:26:45;;;;;;;;;;;;;;;;;;2100302;28;20003;-77
2022/02/04 03:28:03;;;;;;;;;;;;;;;;;;2100822;28;19999;-77
2022/02/04 03:29:30;;;;;;;;;;;;;;;;;;2102057;28;19912;-77
2022/02/04 03:30:51;;;;;;;;;;;;;;;;;;2102592;28;19917;-76
2022/02/04 03:32:11;;;;;;;;;;;;;;;;;;2100674;28;20347;-77
2022/02/04 03:33:32;;;;;;;;;;;;;;;;;;2101739;28;19955;-77
2022/02/04 03:34:51;;;;;;;;;;;;;;;;;;2100245;28;19912;-77
2022/02/04 03:36:10;;;;;;;;;;;;;;;;;;2100650;28;20314;-78
2022/02/04 03:37:29;;;;;;;;;;;;;;;;;;2101729;28;20301;-78
2022/02/04 03:38:48;;;;;;;;;;;;;;;;;;2099844;28;19917;-77
2022/02/04 03:40:06;;;;;;;;;;;;;;;;;;2100665;28;20358;-78
2022/02/04 03:41:25;;;;;;;;;;;;;;;;;;2099506;28;19909;-77
2022/02/04 03:42:44;;;;;;;;;;;;;;;;;;2101947;28;19943;-77
2022/02/04 03:44:03;;;;;;;;;;;;;;;;;;2101105;28;20332;-78
2022/02/04 03:45:22;;;;;;;;;;;;;;;;;;2100765;28;20374;-77
2022/02/04 03:46:41;;;;;;;;;;;;;;;;;;2096393;28;20294;-77
2022/02/04 03:48:00;;;;;;;;;;;;;;;;;;2099530;28;19916;-76
2022/02/04 03:49:19;;;;;;;;;;;;;;;;;;2101610;28;20449;-77
2022/02/04 03:50:38;;;;;;;;;;;;;;;;;;2102297;28;19943;-78
2022/02/04 03:51:57;;;;;;;;;;;;;;;;;;2099417;28;19916;-76
2022/02/04 03:53:16;;;;;;;;;;;;;;;;;;2099882;28;19916;-76
2022/02/04 03:54:34;;;;;;;;;;;;;;;;;;2102693;28;20263;-76
2022/02/04 03:55:53;;;;;;;;;;;;;;;;;;2102335;28;20359;-75
2022/02/04 03:57:13;;;;;;;;;;;;;;;;;;2099934;28;19948;-76
2022/02/04 03:58:36;;;;;;;;;;;;;;;;;;2098976;28;19992;-76
2022/02/04 03:59:55;;;;;;;;;;;;;;;;;;2102303;28;19999;-76
2022/02/04 04:01:14;;;;;;;;;;;;;;;;;;2101501;28;20318;-76
2022/02/04 04:02:32;;;;;;;;;;;;;;;;;;2101048;28;19966;-76
2022/02/04 04:03:51;;;;;;;;;;;;;;;;;;2101530;28;20413;-76
2022/02/04 04:05:11;;;;;;;;;;;;;;;;;;2101039;28;20362;-76
2022/02/04 04:06:30;;;;;;;;;;;;;;;;;;2100853;28;19912;-76
2022/02/04 04:07:50;;;;;;;;;;;;;;;;;;2100790;28;19916;-76
2022/02/04 04:09:09;;;;;;;;;;;;;;;;;;2096082;28;19913;-75
2022/02/04 04:10:36;;;;;;;;;;;;;;;;;;2096126;28;20007;-75
2022/02/04 04:11:56;;;;;;;;;;;;;;;;;;2097589;28;19913;-75
2022/02/04 04:13:14;;;;;;;;;;;;;;;;;;2098180;28;19913;-76
2022/02/04 04:14:33;;;;;;;;;;;;;;;;;;2100979;28;19916;-76
2022/02/04 04:15:52;;;;;;;;;;;;;;;;;;2101542;28;20312;-76
2022/02/04 04:17:11;;;;;;;;;;;;;;;;;;2099488;28;20357;-76
2022/02/04 04:18:29;;;;;;;;;;;;;;;;;;2096141;28;20097;-77
2022/02/04 04:19:48;;;;;;;;;;;;;;;;;;2100523;28;19912;-76
2022/02/04 04:21:07;;;;;;;;;;;;;;;;;;2100492;28;19908;-75
2022/02/04 04:22:26;;;;;;;;;;;;;;;;;;2099673;28;19916;-76
2022/02/04 04:23:45;;;;;;;;;;;;;;;;;;2100620;28;20378;-76
2022/02/04 04:25:04;;;;;;;;;;;;;;;;;;2102217;28;19994;-76
2022/02/04 04:26:23;;;;;;;;;;;;;;;;;;2100107;28;19921;-76
2022/02/04 04:27:42;;;;;;;;;;;;;;;;;;2098440;28;19920;-76
2022/02/04 04:29:01;;;;;;;;;;;;;;;;;;2100854;28;19908;-76
2022/02/04 04:30:21;;;;;;;;;;;;;;;;;;2101129;28;20026;-77
2022/02/04 04:31:41;;;;;;;;;;;;;;;;;;2100728;28;19912;-76
2022/02/04 04:33:00;;;;;;;;;;;;;;;;;;2099847;28;19917;-76
2022/02/04 04:34:18;;;;;;;;;;;;;;;;;;2101031;28;19944;-76
2022/02/04 04:35:37;;;;;;;;;;;;;;;;;;2100234;28;19912;-77
2022/02/04 04:36:56;;;;;;;;;;;;;;;;;;2099821;28;19998;-76
2022/02/04 04:40:39;;;;;;;;;;;;;;;;;;2080166;28;19909;-76
2022/02/04 04:42:16;;;;;;;;;;;;;;;;;;2080469;28;19917;-77
2022/02/04 05:27:55;;;;;;;;;;;;;;;;;;2097529;28;19968;-78
2022/02/04 05:29:06;;;;;;;;;;;;;;;;;;2097324;28;19917;-79
2022/02/04 05:30:24;;;;;;;;;;;;;;;;;;2097873;28;19915;-78
2022/02/04 05:31:43;;;;;;;;;;;;;;;;;;2097736;28;19916;-79
2022/02/04 05:33:02;;;;;;;;;;;;;;;;;;2097962;28;19920;-80
2022/02/04 05:34:21;;;;;;;;;;;;;;;;;;2098571;28;19913;-80
2022/02/04 05:35:40;;;;;;;;;;;;;;;;;;2099081;28;20475;-79
2022/02/04 05:37:04;;;;;;;;;;;;;;;;;;2099968;28;19916;-80
2022/02/04 05:38:23;;;;;;;;;;;;;;;;;;2096238;28;19920;-79
2022/02/04 05:39:55;;;;;;;;;;;;;;;;;;2101616;28;19912;-77
2022/02/04 05:41:20;;;;;;;;;;;;;;;;;;2099218;28;19916;-78
2022/02/04 05:42:45;;;;;;;;;;;;;;;;;;2101092;28;19916;-78
2022/02/04 05:44:09;;;;;;;;;;;;;;;;;;2099802;28;19912;-78
2022/02/04 05:45:32;;;;;;;;;;;;;;;;;;2096913;28;19920;-79
2022/02/04 05:47:07;;;;;;;;;;;;;;;;;;2099849;28;20036;-79
2022/02/04 05:48:28;;;;;;;;;;;;;;;;;;2099072;28;19956;-80
2022/02/04 05:50:04;;;;;;;;;;;;;;;;;;2098097;28;19978;-80
2022/02/04 05:57:15;;;;;;;;;;;;;;;;;;2099258;28;19912;-79
2022/02/04 05:58:50;;;;;;;;;;;;;;;;;;2098442;28;19907;-79
2022/02/04 06:01:49;;;;;;;;;;;;;;;;;;2098182;28;19913;-79
2022/02/04 06:07:48;;;;;;;;;;;;;;;;;;2100054;28;19920;-80
2022/02/04 06:11:15;;;;;;;;;;;;;;;;;;2097758;28;19920;-80
2022/02/04 06:13:32;;;;;;;;;;;;;;;;;;2098532;28;20352;-78
2022/02/04 06:22:23;;;;;;;;;;;;;;;;;;2099188;28;20259;-79
2022/02/04 06:23:42;;;;;;;;;;;;;;;;;;2098996;28;19920;-81
2022/02/04 06:25:01;;;;;;;;;;;;;;;;;;2099056;28;20330;-78
2022/02/04 06:26:20;;;;;;;;;;;;;;;;;;2098119;28;20358;-79
2022/02/04 06:27:39;;;;;;;;;;;;;;;;;;2098232;28;19921;-78
2022/02/04 06:28:58;;;;;;;;;;;;;;;;;;2098709;28;20464;-79
2022/02/04 06:30:17;;;;;;;;;;;;;;;;;;2102257;28;19912;-78
2022/02/04 06:31:36;;;;;;;;;;;;;;;;;;2098437;28;20007;-78
2022/02/04 06:32:55;;;;;;;;;;;;;;;;;;2098340;28;19917;-80
2022/02/04 06:34:14;;;;;;;;;;;;;;;;;;2098262;28;20266;-79
2022/02/04 06:35:34;;;;;;;;;;;;;;;;;;2101049;28;19916;-79
2022/02/04 06:36:53;;;;;;;;;;;;;;;;;;2097191;28;19912;-80
2022/02/04 06:38:12;;;;;;;;;;;;;;;;;;2098178;28;19913;-79
2022/02/04 06:39:31;;;;;;;;;;;;;;;;;;2092203;28;20003;-78
2022/02/04 06:40:49;;;;;;;;;;;;;;;;;;2095328;28;19912;-82
2022/02/04 06:42:08;;;;;;;;;;;;;;;;;;2099711;28;19916;-79
2022/02/04 06:43:27;;;;;;;;;;;;;;;;;;2099357;28;19916;-81
2022/02/04 06:44:46;;;;;;;;;;;;;;;;;;2101458;28;19979;-80
2022/02/04 06:46:05;;;;;;;;;;;;;;;;;;2099436;28;19916;-80
2022/02/04 06:47:24;;;;;;;;;;;;;;;;;;2095072;28;19909;-79
2022/02/04 06:48:42;;;;;;;;;;;;;;;;;;2098416;28;19916;-79
2022/02/04 06:50:01;;;;;;;;;;;;;;;;;;2099387;28;19916;-79
2022/02/04 06:51:20;;;;;;;;;;;;;;;;;;2099365;28;20342;-79
2022/02/04 06:52:38;;;;;;;;;;;;;;;;;;2099749;28;19920;-79
2022/02/04 06:53:57;;;;;;;;;;;;;;;;;;2099646;28;19920;-78
2022/02/04 06:55:16;;;;;;;;;;;;;;;;;;2101014;28;20358;-79
2022/02/04 06:56:36;;;;;;;;;;;;;;;;;;2100613;28;19913;-79
2022/02/04 06:57:56;;;;;;;;;;;;;;;;;;2100655;28;19909;-78
2022/02/04 06:59:16;;;;;;;;;;;;;;;;;;2107177;28;19912;-79
2022/02/04 07:00:35;;;;;;;;;;;;;;;;;;2098155;28;19921;-78
2022/02/04 07:01:54;;;;;;;;;;;;;;;;;;2098754;28;20397;-78
2022/02/04 07:03:13;;;;;;;;;;;;;;;;;;2095660;28;20413;-78
2022/02/04 07:04:34;;;;;;;;;;;;;;;;;;2099934;28;19998;-78
2022/02/04 07:05:58;;;;;;;;;;;;;;;;;;2099814;28;19920;-78
2022/02/04 07:07:18;;;;;;;;;;;;;;;;;;2100954;28;19992;-78
2022/02/04 07:10:09;;;;;;;;;;;;;;;;;;2101373;28;19935;-79
2022/02/04 07:13:07;;;;;;;;;;;;;;;;;;2100572;28;19909;-78
2022/02/04 07:15:53;;;;;;;;;;;;;;;;;;2101066;28;20363;-78
2022/02/04 07:17:26;;;;;;;;;;;;;;;;;;2101953;28;20398;-79
2022/02/04 07:20:03;;;;;;;;;;;;;;;;;;2098712;28;19920;-78
2022/02/04 07:21:22;;;;;;;;;;;;;;;;;;2101200;28;19999;-79
2022/02/04 07:22:42;;;;;;;;;;;;;;;;;;2098081;28;20010;-78
2022/02/04 07:24:00;;;;;;;;;;;;;;;;;;2100749;28;19909;-78
2022/02/04 07:25:19;;;;;;;;;;;;;;;;;;2100230;28;19936;-78
2022/02/04 07:26:38;;;;;;;;;;;;;;;;;;2099121;28;20313;-79
2022/02/04 07:27:57;;;;;;;;;;;;;;;;;;2099604;28;19990;-78
2022/02/04 07:29:16;;;;;;;;;;;;;;;;;;2102438;28;19951;-78
2022/02/04 07:30:35;;;;;;;;;;;;;;;;;;2097932;28;19912;-77
2022/02/04 07:31:55;;;;;;;;;;;;;;;;;;2100065;28;20418;-78
2022/02/04 07:34:44;;;;;;;;;;;;;;;;;;2101758;28;19912;-78
2022/02/04 07:41:00;;;;;;;;;;;;;;;;;;2074701;28;19918;-75
2022/02/04 07:42:19;;;;;;;;;;;;;;;;;;2097186;28;20008;-75
2022/02/04 07:43:38;;;;;;;;;;;;;;;;;;2096899;28;19917;-75
2022/02/04 07:44:57;;;;;;;;;;;;;;;;;;2097367;28;19951;-74
2022/02/04 07:46:18;;;;;;;;;;;;;;;;;;2100106;28;19920;-76
2022/02/04 07:47:37;;;;;;;;;;;;;;;;;;2095907;28;19991;-76
2022/02/04 07:48:56;;;;;;;;;;;;;;;;;;2100805;28;19912;-76
2022/02/04 07:50:17;;;;;;;;;;;;;;;;;;2096851;28;19909;-75
2022/02/04 07:51:36;;;;;;;;;;;;;;;;;;2096860;28;19916;-75
2022/02/04 07:52:55;;;;;;;;;;;;;;;;;;2099790;28;20355;-76
2022/02/04 07:54:15;;;;;;;;;;;;;;;;;;2099058;28;20484;-75
2022/02/04 07:55:34;;;;;;;;;;;;;;;;;;2098853;28;19912;-75
2022/02/04 07:56:53;;;;;;;;;;;;;;;;;;2100520;28;19919;-75
2022/02/04 07:58:11;;;;;;;;;;;;;;;;;;2100429;28;20370;-75
2022/02/04 07:59:30;;;;;;;;;;;;;;;;;;2099904;28;19912;-76
2022/02/04 08:00:50;;;;;;;;;;;;;;;;;;2098208;28;19920;-75
2022/02/04 08:02:09;;;;;;;;;;;;;;;;;;2096409;28;19916;-74
2022/02/04 08:04:48;;;;;;;;;;;;;;;;;;2099742;28;20014;-74
2022/02/04 08:06:15;;;;;;;;;;;;;;;;;;2097906;28;19920;-74
2022/02/04 08:07:44;;;;;;;;;;;;;;;;;;2100278;28;19912;-75
2022/02/04 08:10:33;;;;;;;;;;;;;;;;;;2098671;28;19913;-75
2022/02/04 08:14:59;;;;;;;;;;;;;;;;;;2099800;28;19908;-75
2022/02/04 08:19:19;;;;;;;;;;;;;;;;;;2100261;28;19991;-74
2022/02/04 08:26:29;;;;;;;;;;;;;;;;;;2100571;28;19981;-75
2022/02/04 08:28:20;;;;;;;;;;;;;;;;;;2096780;28;19908;-73
2022/02/04 08:33:08;;;;;;;;;;;;;;;;;;2099902;28;19912;-73
2022/02/04 08:37:57;;;;;;;;;;;;;;;;;;2098510;28;20362;-74
2022/02/04 08:39:45;;;;;;;;;;;;;;;;;;2098657;28;19912;-74
2022/02/04 08:54:59;;;;;;;;;;;;;;;;;;2101424;28;19912;-74
2022/02/04 08:56:21;;;;;;;;;;;;;;;;;;2098525;28;20521;-73
2022/02/04 08:57:49;;;;;;;;;;;;;;;;;;2096911;28;19920;-73
2022/02/04 08:59:18;;;;;;;;;;;;;;;;;;2097678;28;20302;-72
2022/02/04 09:00:46;;;;;;;;;;;;;;;;;;2100399;28;19916;-74
2022/02/04 09:02:15;;;;;;;;;;;;;;;;;;2099024;28;19916;-73
2022/02/04 09:05:03;;;;;;;;;;;;;;;;;;2099309;28;19908;-73
2022/02/04 09:06:25;;;;;;;;;;;;;;;;;;2099623;28;19920;-73
2022/02/04 09:08:47;;;;;;;;;;;;;;;;;;2099754;28;20280;-73
2022/02/04 09:09:57;;;;;;;;;;;;;;;;;;2094512;28;19908;-73
2022/02/04 09:11:16;;;;;;;;;;;;;;;;;;2099112;28;20388;-73
2022/02/04 09:17:24;;;;;;;;;;;;;;;;;;2098534;28;19912;-73
2022/02/04 09:18:53;;;;;;;;;;;;;;;;;;2100335;28;19917;-73
2022/02/04 09:20:27;;;;;;;;;;;;;;;;;;2098532;28;19982;-73
2022/02/04 09:23:05;;;;;;;;;;;;;;;;;;2099907;28;19917;-73
2022/02/04 09:24:24;;;;;;;;;;;;;;;;;;2098148;28;19913;-73
2022/02/04 09:25:43;;;;;;;;;;;;;;;;;;2098611;28;20257;-73
2022/02/04 09:27:02;;;;;;;;;;;;;;;;;;2097906;28;19908;-73
2022/02/04 09:28:21;;;;;;;;;;;;;;;;;;2099933;28;19951;-73
2022/02/04 09:29:40;;;;;;;;;;;;;;;;;;2099523;28;20263;-73
2022/02/04 09:30:59;;;;;;;;;;;;;;;;;;2098547;28;19916;-74
2022/02/04 09:32:18;;;;;;;;;;;;;;;;;;2098607;28;20493;-73
2022/02/04 09:33:36;;;;;;;;;;;;;;;;;;2099609;28;19913;-73
2022/02/04 09:34:56;;;;;;;;;;;;;;;;;;2096829;28;19951;-72
2022/02/04 09:36:14;;;;;;;;;;;;;;;;;;2098006;28;19912;-73
2022/02/04 09:37:33;;;;;;;;;;;;;;;;;;2098604;28;19912;-73
2022/02/04 09:38:52;;;;;;;;;;;;;;;;;;2100908;28;19963;-73
2022/02/04 09:40:11;;;;;;;;;;;;;;;;;;2098183;28;20319;-73
2022/02/04 09:41:30;;;;;;;;;;;;;;;;;;2098833;28;20355;-74
2022/02/04 09:42:49;;;;;;;;;;;;;;;;;;2099114;28;19916;-75
2022/02/04 09:44:08;;;;;;;;;;;;;;;;;;2098301;28;19920;-74
2022/02/04 09:45:28;;;;;;;;;;;;;;;;;;2097091;28;20003;-73
2022/02/04 09:46:47;;;;;;;;;;;;;;;;;;2096580;28;19916;-73
2022/02/04 09:48:07;;;;;;;;;;;;;;;;;;2097863;28;19920;-73
2022/02/04 09:49:33;;;;;;;;;;;;;;;;;;2098029;28;20289;-74
2022/02/04 09:50:54;;;;;;;;;;;;;;;;;;2100252;28;19917;-74
2022/02/04 10:07:03;;;;;;;;;;;;;;;;;;2099524;28;20393;-74
2022/02/04 10:08:40;;;;;;;;;;;;;;;;;;2099912;28;19920;-74
2022/02/04 10:10:38;;;;;;;;;;;;;;;;;;2100349;28;19951;-74
2022/02/04 10:13:38;;;;;;;;;;;;;;;;;;2100036;28;19940;-74
2022/02/04 10:15:06;;;;;;;;;;;;;;;;;;2100986;28;20059;-72
2022/02/04 10:17:04;;;;;;;;;;;;;;;;;;2100291;28;19920;-74
2022/02/04 10:18:18;;;;;;;;;;;;;;;;;;2099494;28;19916;-75
2022/02/04 10:21:06;;;;;;;;;;;;;;;;;;2100910;28;19912;-75
2022/02/04 10:22:26;;;;;;;;;;;;;;;;;;2099723;28;20382;-75
2022/02/04 10:23:44;;;;;;;;;;;;;;;;;;2096910;28;20034;-75
2022/02/04 10:25:03;;;;;;;;;;;;;;;;;;2100802;28;19920;-74
2022/02/04 10:26:23;;;;;;;;;;;;;;;;;;2100242;28;20241;-74
2022/02/04 10:27:46;;;;;;;;;;;;;;;;;;2102701;28;19916;-74
2022/02/04 10:29:04;;;;;;;;;;;;;;;;;;2100184;28;19913;-75
2022/02/04 10:30:23;;;;;;;;;;;;;;;;;;2101089;28;19909;-74
2022/02/04 10:31:47;;;;;;;;;;;;;;;;;;2097723;28;20344;-74
2022/02/04 10:33:05;;;;;;;;;;;;;;;;;;2095101;28;19917;-73
2022/02/04 10:34:26;;;;;;;;;;;;;;;;;;2095362;28;19968;-73
2022/02/04 10:35:46;;;;;;;;;;;;;;;;;;2098704;28;19912;-72
2022/02/04 10:37:28;;;;;;;;;;;;;;;;;;2100320;28;19916;-71
2022/02/04 10:38:49;;;;;;;;;;;;;;;;;;2099477;28;19999;-72
2022/02/04 10:40:17;;;;;;;;;;;;;;;;;;2094543;28;19940;-74
2022/02/04 10:41:41;;;;;;;;;;;;;;;;;;2098864;28;20007;-76
2022/02/04 10:43:16;;;;;;;;;;;;;;;;;;2098899;28;19995;-73
2022/02/04 10:44:48;;;;;;;;;;;;;;;;;;2100508;28;19912;-73
2022/02/04 10:46:20;;;;;;;;;;;;;;;;;;2099515;28;19916;-73
2022/02/04 10:49:22;;;;;;;;;;;;;;;;;;2098107;28;20306;-73
2022/02/04 10:52:23;;;;;;;;;;;;;;;;;;2099564;28;19943;-73
2022/02/04 10:58:19;;;;;;;;;;;;;;;;;;2098961;28;19912;-74
2022/02/04 11:03:58;;;;;;;;;;;;;;;;;;2098688;28;19913;-74
2022/02/04 11:08:46;;;;;;;;;;;;;;;;;;2100421;28;19916;-74
2022/02/04 11:10:35;;;;;;;;;;;;;;;;;;2099928;28;19921;-73
2022/02/04 11:34:27;;;;;;;;;;;;;;;;;;2099370;28;20363;-72
2022/02/04 11:35:50;;;;;;;;;;;;;;;;;;2101037;28;20003;-73
2022/02/04 11:50:59;;;;;;;;;;;;;;;;;;2100181;28;19924;-72
2022/02/04 11:52:27;;;;;;;;;;;;;;;;;;2100232;28;19908;-72
2022/02/04 11:53:26;;;;;;;;;;;;;;;;;;2099110;28;19912;-72
2022/02/04 11:54:46;;;;;;;;;;;;;;;;;;2096136;28;19967;-73
2022/02/04 11:56:05;;;;;;;;;;;;;;;;;;2100391;28;19909;-72
2022/02/04 11:57:24;;;;;;;;;;;;;;;;;;2100383;28;19912;-72
2022/02/04 11:58:43;;;;;;;;;;;;;;;;;;2099879;28;19916;-72
2022/02/04 12:00:02;;;;;;;;;;;;;;;;;;2098022;28;19912;-72
2022/02/04 12:01:21;;;;;;;;;;;;;;;;;;2099676;28;20478;-72
2022/02/04 12:02:40;;;;;;;;;;;;;;;;;;2099771;28;19959;-72
2022/02/04 12:03:59;;;;;;;;;;;;;;;;;;2099673;28;19912;-73
2022/02/04 12:05:18;;;;;;;;;;;;;;;;;;2099957;28;19963;-73
2022/02/04 12:06:40;;;;;;;;;;;;;;;;;;2100247;28;19971;-73
2022/02/04 12:07:59;;;;;;;;;;;;;;;;;;2100071;28;19913;-73
2022/02/04 12:09:17;;;;;;;;;;;;;;;;;;2098118;28;19909;-72
2022/02/04 12:10:36;;;;;;;;;;;;;;;;;;2100454;28;19920;-72
2022/02/04 12:11:55;;;;;;;;;;;;;;;;;;2099701;28;19912;-73
2022/02/04 12:13:14;;;;;;;;;;;;;;;;;;2097613;28;19920;-73
2022/02/04 12:14:33;;;;;;;;;;;;;;;;;;2099328;28;19916;-73
2022/02/04 12:15:52;;;;;;;;;;;;;;;;;;2100059;28;19920;-73
2022/02/04 12:17:13;;;;;;;;;;;;;;;;;;2096255;28;19920;-73
2022/02/04 12:18:32;;;;;;;;;;;;;;;;;;2098133;28;19917;-73
2022/02/04 12:19:52;;;;;;;;;;;;;;;;;;2096967;28;19913;-74
2022/02/04 12:21:11;;;;;;;;;;;;;;;;;;2095102;28;19920;-74
2022/02/04 12:22:30;;;;;;;;;;;;;;;;;;2097327;28;19913;-74
2022/02/04 12:23:49;;;;;;;;;;;;;;;;;;2096615;28;19932;-74
2022/02/04 12:25:08;;;;;;;;;;;;;;;;;;2097021;28;19920;-74
2022/02/04 12:26:27;;;;;;;;;;;;;;;;;;2096988;28;20007;-74
2022/02/04 12:27:48;;;;;;;;;;;;;;;;;;2096663;28;19990;-74
2022/02/04 12:29:12;;;;;;;;;;;;;;;;;;2096865;28;20007;-74
2022/02/04 12:30:31;;;;;;;;;;;;;;;;;;2094137;28;20043;-74
2022/02/04 12:31:50;;;;;;;;;;;;;;;;;;2099302;28;19921;-74
2022/02/04 12:33:09;;;;;;;;;;;;;;;;;;2094161;28;19990;-75
2022/02/04 12:34:28;;;;;;;;;;;;;;;;;;2098220;28;19913;-75
2022/02/04 12:35:47;;;;;;;;;;;;;;;;;;2098549;28;19921;-74
2022/02/04 12:37:06;;;;;;;;;;;;;;;;;;2096773;28;19995;-76
2022/02/04 12:38:24;;;;;;;;;;;;;;;;;;2097477;28;19916;-75
2022/02/04 12:39:43;;;;;;;;;;;;;;;;;;2100726;28;19988;-75
2022/02/04 12:41:02;;;;;;;;;;;;;;;;;;2098838;28;20011;-75
2022/02/04 12:42:21;;;;;;;;;;;;;;;;;;2099503;28;19912;-76
2022/02/04 12:43:40;;;;;;;;;;;;;;;;;;2097556;28;19909;-76
2022/02/04 12:45:03;;;;;;;;;;;;;;;;;;2099394;28;19925;-77
2022/02/04 12:46:22;;;;;;;;;;;;;;;;;;2100549;28;19924;-75
2022/02/04 12:47:41;;;;;;;;;;;;;;;;;;2099921;28;19916;-76
2022/02/04 12:49:00;;;;;;;;;;;;;;;;;;2101322;28;20003;-75
2022/02/04 12:50:21;;;;;;;;;;;;;;;;;;2100177;28;19908;-76
2022/02/04 12:53:01;;;;;;;;;;;;;;;;;;2098718;28;19908;-74
2022/02/04 12:54:20;;;;;;;;;;;;;;;;;;2099541;28;19920;-74
2022/02/04 12:55:59;;;;;;;;;;;;;;;;;;2097342;28;19921;-74
2022/02/04 13:02:00;;;;;;;;;;;;;;;;;;2091706;28;19912;-74
2022/02/04 13:08:49;;;;;;;;;;;;;;;;;;2097163;28;19916;-75
2022/02/04 13:10:08;;;;;;;;;;;;;;;;;;2097112;28;20356;-73
2022/02/04 13:11:27;;;;;;;;;;;;;;;;;;2097129;28;19928;-75
2022/02/04 13:12:46;;;;;;;;;;;;;;;;;;2099098;28;19920;-76
2022/02/04 13:14:05;;;;;;;;;;;;;;;;;;2098766;28;19942;-76
2022/02/04 13:15:23;;;;;;;;;;;;;;;;;;2099047;28;19916;-72
2022/02/04 13:16:42;;;;;;;;;;;;;;;;;;2098546;28;19924;-74
2022/02/04 13:18:01;;;;;;;;;;;;;;;;;;2098570;28;19920;-74
2022/02/04 13:19:20;;;;;;;;;;;;;;;;;;2098305;28;19908;-74
2022/02/04 13:20:39;;;;;;;;;;;;;;;;;;2096212;28;19913;-73
2022/02/04 13:21:58;;;;;;;;;;;;;;;;;;2099362;28;19952;-74
2022/02/04 13:23:17;;;;;;;;;;;;;;;;;;2100379;28;20273;-74
2022/02/04 13:24:36;;;;;;;;;;;;;;;;;;2095261;28;20298;-75
2022/02/04 13:25:55;;;;;;;;;;;;;;;;;;2091633;28;19908;-75
2022/02/04 13:27:15;;;;;;;;;;;;;;;;;;2098512;28;19908;-75
2022/02/04 13:28:33;;;;;;;;;;;;;;;;;;2099015;28;20426;-74
2022/02/04 13:29:52;;;;;;;;;;;;;;;;;;2095900;28;19920;-74
2022/02/04 13:31:13;;;;;;;;;;;;;;;;;;2097809;28;19921;-74
2022/02/04 13:32:32;;;;;;;;;;;;;;;;;;2100040;28;19917;-75
2022/02/04 13:33:52;;;;;;;;;;;;;;;;;;2098438;28;19908;-75
2022/02/04 13:35:11;;;;;;;;;;;;;;;;;;2097726;28;19921;-75
2022/02/04 13:36:36;;;;;;;;;;;;;;;;;;2093822;28;19912;-72
2022/02/04 13:37:59;;;;;;;;;;;;;;;;;;2093417;28;19916;-75
2022/02/04 13:40:47;;;;;;;;;;;;;;;;;;2099477;28;19916;-73
2022/02/04 13:42:14;;;;;;;;;;;;;;;;;;2096418;28;19924;-74
2022/02/04 13:44:26;;;;;;;;;;;;;;;;;;2096365;28;19912;-76
2022/02/04 13:45:22;;;;;;;;;;;;;;;;;;2096552;28;19928;-75
2022/02/04 13:46:54;;;;;;;;;;;;;;;;;;2095439;28;20250;-75
2022/02/04 13:48:16;;;;;;;;;;;;;;;;;;2099428;28;19965;-75
2022/02/04 13:51:21;;;;;;;;;;;;;;;;;;2099129;28;20315;-75
2022/02/04 13:54:03;;;;;;;;;;;;;;;;;;2097953;28;20457;-75
2022/02/04 13:56:55;;;;;;;;;;;;;;;;;;2097632;28;19939;-75
2022/02/04 13:58:57;;;;;;;;;;;;;;;;;;2098373;28;19921;-75
2022/02/04 14:00:00;;;;;;;;;;;;;;;;;;2098496;28;20369;-75
2022/02/04 14:01:25;;;;;;;;;;;;;;;;;;2099115;28;19913;-74
2022/02/04 14:02:48;;;;;;;;;;;;;;;;;;2098632;28;19916;-74
2022/02/04 14:04:07;;;;;;;;;;;;;;;;;;2098803;28;20003;-75
2022/02/04 14:05:26;;;;;;;;;;;;;;;;;;2100391;28;19912;-73
2022/02/04 14:06:45;;;;;;;;;;;;;;;;;;2097441;28;20364;-74
2022/02/04 14:08:04;;;;;;;;;;;;;;;;;;2098257;28;19960;-74
2022/02/04 14:09:24;;;;;;;;;;;;;;;;;;2099540;28;20303;-75
2022/02/04 14:10:46;;;;;;;;;;;;;;;;;;2099601;28;19948;-74
2022/02/04 14:12:05;;;;;;;;;;;;;;;;;;2090302;28;19948;-74
2022/02/04 14:13:23;;;;;;;;;;;;;;;;;;2094177;28;19994;-77
2022/02/04 14:14:42;;;;;;;;;;;;;;;;;;2099830;28;19908;-74
2022/02/04 14:16:01;;;;;;;;;;;;;;;;;;2095846;28;20266;-74
2022/02/04 14:17:20;;;;;;;;;;;;;;;;;;2098150;28;20291;-75